CPP weather

Coposa Airport
Pica, Tarapac√° Region, Chile

Public forecast

Using degrees Celsius for public forecast. Weather courtesy of forecast.io.

Closest aviation weather report (METAR) to Coposa Airport

Closest report is Diego Aracena Airport, 85.1 nm (157.7 km) W. Retrieved 2020/06/05 02:00 UTC (20 minutes ago):

SCDA 050200Z 21005KT CAVOK 15/10 Q1017

Closest aviation forecast (TAF) to Coposa Airport

Closest forecast is Diego Aracena Airport, 85.1 nm (157.7 km) W. Retrieved 2020-06-05 00:00 UTC (2 hours ago):

TAF SCDA 042244Z 0500/0524 20010KT CAVOK TN13/0507Z TX20/0519Z BECMG 0515/0517 24015KT BECMG 0523/0524 19007KT